createdAt,value
2024-03-04T00:01:47.321Z,8.21
2024-03-04T00:04:14.147Z,8.21
2024-03-04T00:06:40.759Z,8.21
2024-03-04T00:09:09.618Z,8.17
2024-03-04T00:11:36.852Z,8.16
2024-03-04T00:14:03.890Z,8.13
2024-03-04T00:16:30.994Z,8.17
2024-03-04T00:19:00.746Z,8.11
2024-03-04T00:21:31.039Z,8.08
2024-03-04T00:23:58.487Z,8.08
2024-03-04T00:26:24.882Z,8.05
2024-03-04T00:28:51.293Z,8.06
2024-03-04T00:31:18.744Z,8.00
2024-03-04T00:33:45.274Z,7.98
2024-03-04T00:36:11.831Z,7.97
2024-03-04T00:38:38.356Z,7.93
2024-03-04T00:41:05.326Z,7.91
2024-03-04T00:43:31.840Z,7.86
2024-03-04T00:45:59.965Z,7.85
2024-03-04T00:48:26.383Z,7.82
2024-03-04T00:50:53.858Z,7.80
2024-03-04T00:53:20.310Z,7.77
2024-03-04T00:55:46.771Z,7.71
2024-03-04T00:58:13.330Z,7.72
2024-03-04T01:00:39.929Z,7.65
2024-03-04T01:03:06.614Z,7.66
2024-03-04T01:05:33.961Z,7.59
2024-03-04T01:08:00.461Z,7.55
2024-03-04T01:10:27.018Z,7.54
2024-03-04T01:12:53.466Z,7.50
2024-03-04T01:15:19.998Z,7.49
2024-03-04T01:17:48.106Z,7.45
2024-03-04T01:20:15.455Z,7.43
2024-03-04T01:22:42.212Z,7.49
2024-03-04T01:25:10.344Z,7.42
2024-03-04T01:27:37.083Z,7.37
2024-03-04T01:30:04.655Z,7.32
2024-03-04T01:32:31.361Z,7.29
2024-03-04T01:34:57.842Z,7.28
2024-03-04T01:37:24.559Z,7.26
2024-03-04T01:39:51.036Z,7.26
2024-03-04T01:42:18.427Z,7.22
2024-03-04T01:44:44.873Z,7.20
2024-03-04T01:47:18.786Z,7.18
2024-03-04T01:49:46.012Z,7.14
2024-03-04T01:52:13.055Z,7.10
2024-03-04T01:54:42.796Z,7.09
2024-03-04T01:59:47.013Z,7.03
2024-03-04T02:04:47.431Z,6.97
2024-03-04T02:09:56.343Z,6.95
2024-03-04T02:12:23.073Z,6.90
2024-03-04T02:20:13.493Z,6.86
2024-03-04T02:22:40.264Z,6.85
2024-03-04T02:25:07.861Z,6.83
2024-03-04T02:30:12.110Z,6.77
2024-03-04T02:32:39.866Z,6.77
2024-03-04T02:35:09.040Z,6.74
2024-03-04T02:37:36.989Z,6.72
2024-03-04T02:40:07.799Z,6.71
2024-03-04T02:42:35.508Z,6.70
2024-03-04T02:45:02.084Z,6.70
2024-03-04T02:47:28.633Z,6.68
2024-03-04T02:49:55.163Z,6.68
2024-03-04T02:52:21.682Z,6.66
2024-03-04T02:54:48.175Z,6.65
2024-03-04T02:57:15.289Z,6.66
2024-03-04T02:59:43.864Z,6.65
2024-03-04T03:02:10.492Z,6.69
2024-03-04T03:04:37.043Z,6.67
2024-03-04T03:07:03.622Z,6.66
2024-03-04T03:09:30.086Z,6.66
2024-03-04T03:11:57.437Z,6.66
2024-03-04T03:14:24.083Z,6.62
2024-03-04T03:16:50.893Z,6.62
2024-03-04T03:19:27.343Z,6.61
2024-03-04T03:21:54.693Z,6.62
2024-03-04T03:24:21.587Z,6.60
2024-03-04T03:26:48.403Z,6.58
2024-03-04T03:37:21.385Z,6.56
2024-03-04T03:39:48.881Z,6.53
2024-03-04T03:47:59.633Z,6.49
2024-03-04T03:50:26.132Z,6.50
2024-03-04T03:58:09.884Z,6.42
2024-03-04T04:00:37.501Z,6.40
2024-03-04T04:05:46.004Z,6.38
2024-03-04T04:08:12.468Z,6.38
2024-03-04T04:10:39.033Z,6.35
2024-03-04T04:31:53.309Z,6.15
2024-03-04T04:34:19.801Z,6.15
2024-03-04T04:42:10.080Z,6.05
2024-03-04T04:47:32.668Z,6.03
2024-03-04T04:55:29.591Z,5.96
2024-03-04T04:57:58.370Z,5.96
2024-03-04T05:00:24.858Z,5.93
2024-03-04T05:02:53.533Z,5.92
2024-03-04T05:10:59.538Z,5.88
2024-03-04T05:24:06.856Z,5.82
2024-03-04T05:29:28.539Z,5.77
2024-03-04T05:31:59.430Z,5.75
2024-03-04T05:34:26.827Z,5.72
2024-03-04T05:36:53.428Z,5.73
2024-03-04T05:39:22.962Z,5.68
2024-03-04T05:41:52.342Z,5.69
2024-03-04T05:47:00.542Z,5.63
2024-03-04T05:49:27.160Z,5.61
2024-03-04T05:51:54.552Z,5.62
2024-03-04T05:54:21.258Z,5.64
2024-03-04T05:56:47.994Z,5.65
2024-03-04T05:59:15.363Z,5.65
2024-03-04T06:01:43.731Z,5.66
2024-03-04T06:04:10.804Z,5.67
2024-03-04T06:06:37.636Z,5.67
2024-03-04T06:09:05.908Z,5.66
2024-03-04T06:11:32.801Z,5.64
2024-03-04T06:13:59.597Z,5.65
2024-03-04T06:16:26.461Z,5.65
2024-03-04T06:18:53.067Z,5.63
2024-03-04T06:21:19.504Z,5.66
2024-03-04T06:23:46.045Z,5.65
2024-03-04T06:26:12.800Z,5.60
2024-03-04T06:28:39.965Z,5.58
2024-03-04T06:31:07.175Z,5.57
2024-03-04T06:33:44.503Z,5.60
2024-03-04T06:36:18.921Z,5.58
2024-03-04T06:38:46.613Z,5.55
2024-03-04T06:41:13.088Z,5.59
2024-03-04T06:43:39.819Z,5.58
2024-03-04T06:46:06.448Z,5.65
2024-03-04T06:48:32.963Z,5.63
2024-03-04T06:50:59.492Z,5.74
2024-03-04T06:53:25.960Z,5.77
2024-03-04T06:55:52.730Z,5.79
2024-03-04T06:58:20.356Z,5.82
2024-03-04T07:00:48.816Z,5.81
2024-03-04T07:03:15.566Z,5.79
2024-03-04T07:05:42.052Z,5.82
2024-03-04T07:08:08.548Z,5.83
2024-03-04T07:10:35.173Z,5.92
2024-03-04T07:13:02.597Z,5.95
2024-03-04T07:15:29.221Z,6.01
2024-03-04T07:17:56.331Z,6.05
2024-03-04T07:20:23.794Z,6.06
2024-03-04T07:22:50.314Z,6.11
2024-03-04T07:25:16.803Z,6.18
2024-03-04T07:27:43.298Z,6.22
2024-03-04T07:30:10.026Z,6.43
2024-03-04T07:32:36.877Z,6.52
2024-03-04T07:35:03.673Z,6.77
2024-03-04T07:37:30.167Z,6.87
2024-03-04T07:39:56.643Z,7.17
2024-03-04T07:42:25.181Z,7.32
2024-03-04T07:44:51.687Z,7.24
2024-03-04T07:47:18.188Z,7.18
2024-03-04T07:49:44.894Z,6.92
2024-03-04T07:52:11.400Z,6.82
2024-03-04T07:54:37.942Z,6.86
2024-03-04T07:57:10.735Z,7.07
2024-03-04T07:59:44.162Z,7.29
2024-03-04T08:02:10.743Z,7.64
2024-03-04T08:04:37.262Z,7.71
2024-03-04T08:07:04.609Z,7.68
2024-03-04T08:09:31.156Z,7.77
2024-03-04T08:11:57.795Z,7.56
2024-03-04T08:14:24.238Z,7.57
2024-03-04T08:16:50.724Z,8.05
2024-03-04T08:19:17.337Z,8.45
2024-03-04T08:21:45.836Z,8.58
2024-03-04T08:24:12.421Z,9.14
2024-03-04T08:26:38.874Z,10.13
2024-03-04T08:29:05.362Z,10.20
2024-03-04T08:31:34.225Z,10.08
2024-03-04T08:34:00.715Z,9.82
2024-03-04T08:36:27.181Z,10.27
2024-03-04T08:38:53.684Z,10.40
2024-03-04T08:41:20.249Z,11.37
2024-03-04T08:43:48.676Z,10.18
2024-03-04T08:46:15.387Z,10.05
2024-03-04T08:48:43.071Z,11.45
2024-03-04T08:51:09.861Z,11.83
2024-03-04T08:53:37.152Z,10.31
2024-03-04T08:56:05.763Z,10.41
2024-03-04T08:58:33.422Z,10.42
2024-03-04T09:01:01.428Z,9.88
2024-03-04T09:03:28.095Z,9.79
2024-03-04T09:05:54.883Z,9.31
2024-03-04T09:08:21.361Z,10.03
2024-03-04T09:10:49.367Z,10.70
2024-03-04T09:13:16.057Z,10.15
2024-03-04T09:15:42.574Z,9.59
2024-03-04T09:18:09.136Z,9.76
2024-03-04T09:20:35.610Z,10.94
2024-03-04T09:23:02.652Z,10.02
2024-03-04T09:25:29.232Z,10.33
2024-03-04T09:27:55.806Z,9.89
2024-03-04T09:30:23.380Z,10.39
2024-03-04T09:32:49.860Z,10.81
2024-03-04T09:35:17.638Z,11.81
2024-03-04T09:37:45.853Z,11.18
2024-03-04T09:40:12.990Z,11.04
2024-03-04T09:42:46.688Z,11.11
2024-03-04T09:45:13.237Z,10.46
2024-03-04T09:47:44.985Z,10.04
2024-03-04T09:50:11.976Z,10.53
2024-03-04T09:52:38.754Z,10.88
2024-03-04T09:55:05.856Z,10.08
2024-03-04T09:57:33.374Z,9.93
2024-03-04T09:59:59.875Z,9.66
2024-03-04T10:02:26.542Z,9.36
2024-03-04T10:04:53.349Z,9.04
2024-03-04T10:07:20.009Z,9.19
2024-03-04T10:09:46.670Z,9.05
2024-03-04T10:12:13.282Z,9.08
2024-03-04T10:15:04.716Z,9.20
2024-03-04T10:17:31.207Z,9.38
2024-03-04T10:20:25.180Z,9.94
2024-03-04T10:22:52.035Z,9.89
2024-03-04T10:25:19.295Z,9.83
2024-03-04T10:27:50.969Z,9.90
2024-03-04T10:30:25.396Z,9.90
2024-03-04T10:32:57.667Z,9.35
2024-03-04T10:35:26.863Z,9.25
2024-03-04T10:37:57.936Z,9.31
2024-03-04T10:40:24.421Z,9.36
2024-03-04T10:42:50.916Z,9.26
2024-03-04T10:45:18.296Z,9.32
2024-03-04T10:47:46.684Z,9.44
2024-03-04T10:50:16.249Z,9.46
2024-03-04T10:52:45.061Z,9.55
2024-03-04T10:55:13.093Z,9.52
2024-03-04T10:57:43.910Z,9.73
2024-03-04T11:00:21.059Z,9.69
2024-03-04T11:03:10.978Z,9.61
2024-03-04T11:05:41.694Z,9.18
2024-03-04T11:08:20.069Z,9.18
2024-03-04T11:10:48.788Z,9.36
2024-03-04T11:13:38.038Z,9.54
2024-03-04T11:16:11.871Z,9.72
2024-03-04T11:19:08.931Z,10.17
2024-03-04T11:21:35.591Z,9.73
2024-03-04T11:24:05.378Z,9.78
2024-03-04T11:26:32.472Z,9.71
2024-03-04T11:29:01.515Z,9.96
2024-03-04T11:31:29.465Z,10.19
2024-03-04T11:34:01.188Z,10.07
2024-03-04T11:36:28.644Z,10.22
2024-03-04T11:38:56.842Z,10.54
2024-03-04T11:41:56.792Z,10.37
2024-03-04T11:44:30.241Z,10.72
2024-03-04T11:46:58.042Z,11.42
2024-03-04T11:49:45.662Z,11.25
2024-03-04T11:52:21.401Z,11.18
2024-03-04T11:54:49.465Z,10.62
2024-03-04T11:57:17.669Z,10.43
2024-03-04T12:00:10.728Z,10.04
2024-03-04T12:02:40.506Z,10.15
2024-03-04T12:05:12.774Z,10.43
2024-03-04T12:07:39.439Z,10.56
2024-03-04T12:10:13.219Z,10.49
2024-03-04T12:12:44.774Z,10.47
2024-03-04T12:15:11.620Z,10.41
2024-03-04T12:17:38.673Z,10.71
2024-03-04T12:20:08.421Z,10.98
2024-03-04T12:22:36.202Z,11.07
2024-03-04T12:25:09.280Z,11.16
2024-03-04T12:27:37.666Z,11.10
2024-03-04T12:30:18.568Z,11.53
2024-03-04T12:32:50.447Z,11.70
2024-03-04T12:35:26.845Z,11.23
2024-03-04T12:37:55.465Z,12.03
2024-03-04T12:40:23.356Z,11.81
2024-03-04T12:42:59.626Z,11.42
2024-03-04T12:45:27.692Z,10.44
2024-03-04T12:47:57.238Z,10.38
2024-03-04T12:50:29.212Z,10.67
2024-03-04T12:52:57.456Z,10.62
2024-03-04T12:55:25.655Z,10.77
2024-03-04T12:57:57.713Z,10.55
2024-03-04T13:00:25.110Z,10.93
2024-03-04T13:02:51.908Z,11.69
2024-03-04T13:05:19.281Z,11.98
2024-03-04T13:07:46.127Z,12.90
2024-03-04T13:10:13.630Z,13.33
2024-03-04T13:12:43.832Z,14.85
2024-03-04T13:15:11.646Z,13.55
2024-03-04T13:17:46.084Z,13.04
2024-03-04T13:20:16.048Z,11.74
2024-03-04T13:22:50.850Z,11.52
2024-03-04T13:25:19.122Z,11.22
2024-03-04T13:27:47.263Z,11.38
2024-03-04T13:30:15.093Z,10.84
2024-03-04T13:32:41.754Z,10.74
2024-03-04T13:35:11.469Z,11.20
2024-03-04T13:37:38.618Z,11.29
2024-03-04T13:40:11.688Z,11.65
2024-03-04T13:42:38.399Z,11.75
2024-03-04T13:45:08.140Z,11.96
2024-03-04T13:47:35.298Z,11.67
2024-03-04T13:50:01.888Z,11.63
2024-03-04T13:52:28.335Z,11.71
2024-03-04T13:54:54.845Z,11.35
2024-03-04T13:57:21.413Z,11.05
2024-03-04T13:59:48.596Z,11.24
2024-03-04T14:02:15.074Z,11.22
2024-03-04T14:04:41.732Z,11.02
2024-03-04T14:07:08.286Z,10.84
2024-03-04T14:09:34.857Z,10.63
2024-03-04T14:12:01.365Z,10.71
2024-03-04T14:14:29.718Z,10.74
2024-03-04T14:16:56.542Z,10.62
2024-03-04T14:19:23.250Z,10.56
2024-03-04T14:21:49.882Z,10.42
2024-03-04T14:24:16.345Z,10.57
2024-03-04T14:26:42.912Z,10.34
2024-03-04T14:29:09.518Z,10.39
2024-03-04T14:31:36.050Z,10.35
2024-03-04T14:34:02.698Z,10.25
2024-03-04T14:36:29.981Z,10.20
2024-03-04T14:38:56.797Z,10.34
2024-03-04T14:41:23.341Z,10.22
2024-03-04T14:43:50.080Z,10.06
2024-03-04T14:46:16.956Z,10.02
2024-03-04T14:48:46.893Z,10.02
2024-03-04T14:51:15.415Z,10.03
2024-03-04T14:53:43.575Z,10.08
2024-03-04T14:56:10.106Z,10.13
2024-03-04T14:58:36.863Z,10.03
2024-03-04T15:01:03.784Z,10.07
2024-03-04T15:03:32.146Z,10.15
2024-03-04T15:05:58.710Z,10.13
2024-03-04T15:08:25.196Z,10.21
2024-03-04T15:10:51.767Z,10.14
2024-03-04T15:13:20.817Z,10.17
2024-03-04T15:15:47.259Z,10.24
2024-03-04T15:18:18.584Z,10.25
2024-03-04T15:20:48.766Z,10.25
2024-03-04T15:23:15.512Z,10.24
2024-03-04T15:25:42.779Z,10.25
2024-03-04T15:28:11.375Z,10.32
2024-03-04T15:30:38.051Z,10.37
2024-03-04T15:33:05.027Z,10.34
2024-03-04T15:35:32.771Z,10.33
2024-03-04T15:37:59.309Z,10.32
2024-03-04T15:40:26.838Z,10.33
2024-03-04T15:42:54.425Z,10.35
2024-03-04T15:45:21.043Z,10.37
2024-03-04T15:47:48.345Z,10.34
2024-03-04T15:50:17.117Z,10.40
2024-03-04T15:52:45.525Z,10.36
2024-03-04T15:55:19.238Z,10.32
2024-03-04T15:57:45.842Z,10.29
2024-03-04T16:00:15.722Z,10.25
2024-03-04T16:02:43.267Z,10.24
2024-03-04T16:05:11.434Z,10.24
2024-03-04T16:07:38.242Z,10.21
2024-03-04T16:10:08.701Z,10.23
2024-03-04T16:12:35.335Z,10.21
2024-03-04T16:15:01.962Z,10.16
2024-03-04T16:17:28.510Z,10.14
2024-03-04T16:19:55.256Z,10.12
2024-03-04T16:22:21.809Z,10.10
2024-03-04T16:24:48.361Z,10.08
2024-03-04T16:27:17.526Z,10.06
2024-03-04T16:29:44.090Z,10.01
2024-03-04T16:32:10.717Z,10.03
2024-03-04T16:34:37.245Z,10.00
2024-03-04T16:37:05.156Z,10.00
2024-03-04T16:39:32.527Z,9.99
2024-03-04T16:41:59.109Z,9.96
2024-03-04T16:44:26.502Z,9.95
2024-03-04T16:46:53.195Z,9.92
2024-03-04T16:49:20.227Z,9.88
2024-03-04T16:51:48.303Z,9.91
2024-03-04T16:54:15.627Z,9.90
2024-03-04T16:56:46.436Z,9.88
2024-03-04T16:59:13.238Z,9.90
2024-03-04T17:01:43.398Z,9.90
2024-03-04T17:04:12.685Z,9.95
2024-03-04T17:06:39.157Z,9.98
2024-03-04T17:09:05.654Z,9.96
2024-03-04T17:11:32.265Z,9.98
2024-03-04T17:13:58.839Z,9.98
2024-03-04T17:16:25.366Z,10.00
2024-03-04T17:18:51.937Z,10.06
2024-03-04T17:21:18.780Z,10.06
2024-03-04T17:23:45.478Z,10.02
2024-03-04T17:26:11.951Z,10.14
2024-03-04T17:28:38.462Z,10.03
2024-03-04T17:31:05.736Z,9.99
2024-03-04T17:33:33.721Z,9.97
2024-03-04T17:36:00.273Z,9.89
2024-03-04T17:38:27.594Z,9.99
2024-03-04T17:40:54.667Z,9.85
2024-03-04T17:43:22.147Z,9.83
2024-03-04T17:45:48.621Z,9.87
2024-03-04T17:48:15.204Z,9.82
2024-03-04T17:50:42.746Z,9.80
2024-03-04T17:53:09.252Z,9.80
2024-03-04T17:55:36.583Z,9.73
2024-03-04T17:58:04.072Z,9.79
2024-03-04T18:00:30.638Z,9.67
2024-03-04T18:02:57.187Z,9.74
2024-03-04T18:05:23.700Z,9.63
2024-03-04T18:07:50.309Z,9.57
2024-03-04T18:10:17.020Z,9.56
2024-03-04T18:12:44.298Z,9.53
2024-03-04T18:15:11.182Z,9.52
2024-03-04T18:17:37.742Z,9.54
2024-03-04T18:20:04.542Z,9.57
2024-03-04T18:22:31.190Z,9.55
2024-03-04T18:24:58.508Z,9.56
2024-03-04T18:27:25.245Z,9.57
2024-03-04T18:29:51.703Z,9.61
2024-03-04T18:32:18.424Z,9.64
2024-03-04T18:34:44.974Z,9.66
2024-03-04T18:37:12.501Z,9.50
2024-03-04T18:39:38.965Z,9.52
2024-03-04T18:42:05.504Z,9.57
2024-03-04T18:44:32.761Z,9.55
2024-03-04T18:46:59.298Z,9.47
2024-03-04T18:49:25.890Z,9.45
2024-03-04T18:51:53.839Z,9.39
2024-03-04T18:54:20.271Z,9.40
2024-03-04T18:56:47.777Z,9.37
2024-03-04T18:59:14.432Z,9.34
2024-03-04T19:01:41.828Z,9.38
2024-03-04T19:04:09.163Z,9.33
2024-03-04T19:06:35.695Z,9.30
2024-03-04T19:09:03.014Z,9.42
2024-03-04T19:11:29.664Z,9.35
2024-03-04T19:13:56.127Z,9.26
2024-03-04T19:16:22.846Z,9.22
2024-03-04T19:18:49.347Z,9.20
2024-03-04T19:21:19.464Z,9.24
2024-03-04T19:23:45.993Z,9.20
2024-03-04T19:26:19.662Z,9.20
2024-03-04T19:28:46.638Z,9.29
2024-03-04T19:31:23.812Z,9.24
2024-03-04T19:33:53.532Z,9.20
2024-03-04T19:36:21.727Z,9.18
2024-03-04T19:38:48.677Z,9.17
2024-03-04T19:41:22.381Z,9.19
2024-03-04T19:43:49.923Z,9.14
2024-03-04T19:46:27.196Z,9.20
2024-03-04T19:48:53.959Z,9.21
2024-03-04T19:51:26.055Z,9.16
2024-03-04T19:53:54.431Z,9.20
2024-03-04T19:56:21.176Z,9.17
2024-03-04T19:58:47.994Z,9.17
2024-03-04T20:01:15.131Z,9.18
2024-03-04T20:03:42.491Z,9.23
2024-03-04T20:06:10.051Z,9.21
2024-03-04T20:08:36.958Z,9.22
2024-03-04T20:11:04.346Z,9.14
2024-03-04T20:13:31.357Z,9.16
2024-03-04T20:15:58.263Z,9.13
2024-03-04T20:18:24.710Z,9.10
2024-03-04T20:20:51.222Z,9.06
2024-03-04T20:23:17.722Z,9.05
2024-03-04T20:25:45.720Z,9.07
2024-03-04T20:28:12.349Z,9.09
2024-03-04T20:30:43.265Z,9.09
2024-03-04T20:33:11.237Z,9.03
2024-03-04T20:35:39.146Z,9.02
2024-03-04T20:38:07.651Z,9.03
2024-03-04T20:40:38.311Z,9.01
2024-03-04T20:43:06.096Z,8.98
2024-03-04T20:45:33.296Z,9.08
2024-03-04T20:48:00.067Z,9.03
2024-03-04T20:50:26.969Z,9.00
2024-03-04T20:52:54.149Z,9.00
2024-03-04T20:55:21.394Z,9.00
2024-03-04T20:57:48.129Z,8.94
2024-03-04T21:00:16.407Z,8.97
2024-03-04T21:02:48.388Z,8.98
2024-03-04T21:05:16.781Z,8.98
2024-03-04T21:07:47.218Z,9.00
2024-03-04T21:10:19.888Z,9.04
2024-03-04T21:12:49.852Z,9.03
2024-03-04T21:15:16.889Z,9.00
2024-03-04T21:17:44.491Z,9.03
2024-03-04T21:20:13.415Z,8.92
2024-03-04T21:22:42.098Z,8.87
2024-03-04T21:25:09.566Z,8.88
2024-03-04T21:27:40.989Z,8.85
2024-03-04T21:30:08.889Z,8.86
2024-03-04T21:32:35.438Z,8.80
2024-03-04T21:35:03.083Z,8.79
2024-03-04T21:37:32.248Z,8.80
2024-03-04T21:40:01.265Z,8.73
2024-03-04T21:42:28.634Z,8.66
2024-03-04T21:44:55.903Z,8.72
2024-03-04T21:47:22.389Z,8.69
2024-03-04T21:49:48.843Z,8.72
2024-03-04T21:52:15.391Z,8.65
2024-03-04T21:54:42.121Z,8.64
2024-03-04T21:57:08.686Z,8.71
2024-03-04T21:59:35.222Z,8.69
2024-03-04T22:02:01.762Z,8.62
2024-03-04T22:04:28.316Z,8.64
2024-03-04T22:06:57.232Z,8.59
2024-03-04T22:09:23.654Z,8.57
2024-03-04T22:11:50.887Z,8.60
2024-03-04T22:14:18.143Z,8.56
2024-03-04T22:16:45.914Z,8.56
2024-03-04T22:19:16.071Z,8.55
2024-03-04T22:21:42.631Z,8.51
2024-03-04T22:24:09.332Z,8.53
2024-03-04T22:26:36.546Z,8.49
2024-03-04T22:29:07.832Z,8.39
2024-03-04T22:31:34.799Z,8.40
2024-03-04T22:34:03.032Z,8.38
2024-03-04T22:36:29.561Z,8.35
2024-03-04T22:38:56.074Z,8.33
2024-03-04T22:41:22.904Z,8.29
2024-03-04T22:43:51.035Z,8.24
2024-03-04T22:46:18.620Z,8.21
2024-03-04T22:48:45.229Z,8.22
2024-03-04T22:51:11.723Z,8.17
2024-03-04T22:53:38.145Z,8.24
2024-03-04T22:56:05.540Z,8.20
2024-03-04T22:58:33.076Z,8.16
2024-03-04T23:01:05.015Z,8.12
2024-03-04T23:03:31.756Z,8.10
2024-03-04T23:05:59.267Z,8.12
2024-03-04T23:08:26.092Z,8.11
2024-03-04T23:10:52.800Z,8.11
2024-03-04T23:13:20.195Z,8.17
2024-03-04T23:15:47.168Z,8.16
2024-03-04T23:18:13.666Z,8.12
2024-03-04T23:20:40.205Z,8.08
2024-03-04T23:23:07.814Z,7.94
2024-03-04T23:25:34.448Z,7.71
2024-03-04T23:28:01.107Z,7.63
2024-03-04T23:30:27.769Z,7.51
2024-03-04T23:32:54.526Z,7.36
2024-03-04T23:35:21.135Z,7.19
2024-03-04T23:37:47.605Z,7.12
2024-03-04T23:40:15.286Z,7.09
2024-03-04T23:42:43.464Z,6.94
2024-03-04T23:45:13.287Z,6.84
2024-03-04T23:47:40.785Z,6.81
2024-03-04T23:50:08.806Z,6.76
2024-03-04T23:52:37.901Z,6.77
2024-03-04T23:55:08.058Z,6.78
2024-03-04T23:57:35.533Z,6.75
